sensor_id;sensor_type;location;lat;lon;timestamp;pressure;altitude;pressure_sealevel;temperature;humidity
3960;BME280;1994;48.640;8.894;2023-03-20T00:01:33;96340.91;;;10.22;88.75
3960;BME280;1994;48.640;8.894;2023-03-20T00:03:59;96359.34;;;10.25;88.49
3960;BME280;1994;48.640;8.894;2023-03-20T00:06:27;96354.88;;;10.21;86.76
3960;BME280;1994;48.640;8.894;2023-03-20T00:08:56;96346.19;;;10.15;87.02
3960;BME280;1994;48.640;8.894;2023-03-20T00:11:34;96354.63;;;10.11;87.09
3960;BME280;1994;48.640;8.894;2023-03-20T00:14:09;96351.25;;;10.22;87.18
3960;BME280;1994;48.640;8.894;2023-03-20T00:16:40;96354.19;;;10.25;87.02
3960;BME280;1994;48.640;8.894;2023-03-20T00:21:44;96356.66;;;10.32;86.64
3960;BME280;1994;48.640;8.894;2023-03-20T00:24:11;96353.06;;;10.33;86.54
3960;BME280;1994;48.640;8.894;2023-03-20T00:26:37;96356.56;;;10.38;86.09
3960;BME280;1994;48.640;8.894;2023-03-20T00:29:05;96359.13;;;10.27;86.06
3960;BME280;1994;48.640;8.894;2023-03-20T00:31:37;96361.16;;;10.25;85.78
3960;BME280;1994;48.640;8.894;2023-03-20T00:34:11;96357.78;;;10.13;85.70
3960;BME280;1994;48.640;8.894;2023-03-20T00:36:37;96359.47;;;10.07;85.84
3960;BME280;1994;48.640;8.894;2023-03-20T00:39:03;96359.03;;;10.10;85.95
3960;BME280;1994;48.640;8.894;2023-03-20T00:41:39;96356.09;;;10.07;85.95
3960;BME280;1994;48.640;8.894;2023-03-20T00:46:38;96354.47;;;9.83;86.68
3960;BME280;1994;48.640;8.894;2023-03-20T00:49:04;96351.19;;;9.76;86.14
3960;BME280;1994;48.640;8.894;2023-03-20T00:51:33;96357.38;;;9.86;85.84
3960;BME280;1994;48.640;8.894;2023-03-20T00:53:59;96358.25;;;9.69;85.60
3960;BME280;1994;48.640;8.894;2023-03-20T00:56:32;96354.63;;;9.58;85.80
3960;BME280;1994;48.640;8.894;2023-03-20T00:59:01;96359.19;;;9.45;86.42
3960;BME280;1994;48.640;8.894;2023-03-20T01:01:28;96361.31;;;9.36;86.73
3960;BME280;1994;48.640;8.894;2023-03-20T01:03:55;96367.09;;;9.20;87.19
3960;BME280;1994;48.640;8.894;2023-03-20T01:06:21;96363.31;;;9.05;88.04
3960;BME280;1994;48.640;8.894;2023-03-20T01:08:47;96363.81;;;8.95;88.37
3960;BME280;1994;48.640;8.894;2023-03-20T01:11:14;96365.03;;;8.93;88.47
3960;BME280;1994;48.640;8.894;2023-03-20T01:13:41;96365.63;;;8.95;88.41
3960;BME280;1994;48.640;8.894;2023-03-20T01:16:22;96362.41;;;8.81;88.70
3960;BME280;1994;48.640;8.894;2023-03-20T01:18:49;96357.28;;;8.75;89.03
3960;BME280;1994;48.640;8.894;2023-03-20T01:21:16;96362.09;;;8.71;89.27
3960;BME280;1994;48.640;8.894;2023-03-20T01:23:42;96364.47;;;8.73;89.05
3960;BME280;1994;48.640;8.894;2023-03-20T01:28:48;96365.09;;;8.50;90.00
3960;BME280;1994;48.640;8.894;2023-03-20T01:31:16;96360.44;;;8.41;90.46
3960;BME280;1994;48.640;8.894;2023-03-20T01:33:41;96354.84;;;8.44;90.04
3960;BME280;1994;48.640;8.894;2023-03-20T01:36:10;96358.72;;;8.35;90.07
3960;BME280;1994;48.640;8.894;2023-03-20T01:38:37;96363.72;;;8.30;90.07
3960;BME280;1994;48.640;8.894;2023-03-20T01:41:13;96365.75;;;8.28;90.66
3960;BME280;1994;48.640;8.894;2023-03-20T01:43:41;96360.63;;;8.21;90.71
3960;BME280;1994;48.640;8.894;2023-03-20T01:51:30;96361.66;;;8.14;91.35
3960;BME280;1994;48.640;8.894;2023-03-20T01:54:24;96358.97;;;8.02;92.63
3960;BME280;1994;48.640;8.894;2023-03-20T01:56:58;96360.47;;;7.92;93.25
3960;BME280;1994;48.640;8.894;2023-03-20T01:59:31;96355.19;;;8.05;93.29
3960;BME280;1994;48.640;8.894;2023-03-20T02:01:59;96363.06;;;8.10;93.08
3960;BME280;1994;48.640;8.894;2023-03-20T02:04:31;96370.16;;;8.21;92.84
3960;BME280;1994;48.640;8.894;2023-03-20T02:06:59;96379.72;;;8.14;93.16
3960;BME280;1994;48.640;8.894;2023-03-20T02:09:25;96372.53;;;8.22;93.04
3960;BME280;1994;48.640;8.894;2023-03-20T02:11:51;96370.31;;;8.26;92.98
3960;BME280;1994;48.640;8.894;2023-03-20T02:14:19;96372.88;;;8.26;93.07
3960;BME280;1994;48.640;8.894;2023-03-20T02:16:45;96374.41;;;8.33;92.97
3960;BME280;1994;48.640;8.894;2023-03-20T02:40:42;96379.63;;;8.27;93.12
3960;BME280;1994;48.640;8.894;2023-03-20T03:00:00;96373.00;;;8.13;93.75
3960;BME280;1994;48.640;8.894;2023-03-20T03:02:36;96380.47;;;8.21;93.37
3960;BME280;1994;48.640;8.894;2023-03-20T03:05:15;96377.69;;;8.22;93.42
3960;BME280;1994;48.640;8.894;2023-03-20T03:07:44;96387.38;;;8.27;93.23
3960;BME280;1994;48.640;8.894;2023-03-20T03:10:29;96387.38;;;8.27;92.96
3960;BME280;1994;48.640;8.894;2023-03-20T03:12:58;96393.00;;;8.42;92.48
3960;BME280;1994;48.640;8.894;2023-03-20T03:15:38;96392.72;;;8.50;92.16
3960;BME280;1994;48.640;8.894;2023-03-20T03:18:09;96391.03;;;8.62;91.66
3960;BME280;1994;48.640;8.894;2023-03-20T03:20:38;96395.59;;;8.60;91.28
3960;BME280;1994;48.640;8.894;2023-03-20T03:23:06;96387.34;;;8.51;91.60
3960;BME280;1994;48.640;8.894;2023-03-20T03:25:37;96395.88;;;8.52;91.72
3960;BME280;1994;48.640;8.894;2023-03-20T03:28:33;96392.03;;;8.61;92.07
3960;BME280;1994;48.640;8.894;2023-03-20T03:31:07;96398.75;;;8.62;91.75
3960;BME280;1994;48.640;8.894;2023-03-20T03:33:36;96396.34;;;8.67;91.82
3960;BME280;1994;48.640;8.894;2023-03-20T03:39:50;96402.41;;;8.90;90.96
3960;BME280;1994;48.640;8.894;2023-03-20T03:42:56;96403.66;;;8.88;90.89
3960;BME280;1994;48.640;8.894;2023-03-20T03:45:32;96402.06;;;8.87;91.09
3960;BME280;1994;48.640;8.894;2023-03-20T03:50:49;96393.03;;;8.78;91.91
3960;BME280;1994;48.640;8.894;2023-03-20T03:53:24;96399.41;;;8.75;92.28
3960;BME280;1994;48.640;8.894;2023-03-20T03:55:54;96411.09;;;8.60;92.79
3960;BME280;1994;48.640;8.894;2023-03-20T03:58:50;96417.47;;;8.57;93.48
3960;BME280;1994;48.640;8.894;2023-03-20T04:01:19;96422.56;;;8.64;93.23
3960;BME280;1994;48.640;8.894;2023-03-20T04:03:51;96415.31;;;8.72;92.90
3960;BME280;1994;48.640;8.894;2023-03-20T04:06:18;96423.28;;;8.71;92.87
3960;BME280;1994;48.640;8.894;2023-03-20T04:08:45;96417.66;;;8.80;92.51
3960;BME280;1994;48.640;8.894;2023-03-20T04:11:22;96414.81;;;8.82;92.23
3960;BME280;1994;48.640;8.894;2023-03-20T04:13:50;96423.03;;;8.79;92.10
3960;BME280;1994;48.640;8.894;2023-03-20T04:16:18;96425.53;;;8.85;92.01
3960;BME280;1994;48.640;8.894;2023-03-20T04:18:45;96422.97;;;8.85;91.84
3960;BME280;1994;48.640;8.894;2023-03-20T04:21:11;96413.53;;;8.91;91.61
3960;BME280;1994;48.640;8.894;2023-03-20T04:23:36;96414.09;;;8.93;91.48
3960;BME280;1994;48.640;8.894;2023-03-20T04:26:03;96415.22;;;8.85;91.58
3960;BME280;1994;48.640;8.894;2023-03-20T04:28:30;96413.25;;;8.81;92.04
3960;BME280;1994;48.640;8.894;2023-03-20T04:30:58;96407.22;;;8.87;91.44
3960;BME280;1994;48.640;8.894;2023-03-20T04:33:25;96394.31;;;8.69;92.13
3960;BME280;1994;48.640;8.894;2023-03-20T04:35:52;96398.25;;;8.71;91.93
3960;BME280;1994;48.640;8.894;2023-03-20T04:38:18;96406.34;;;8.57;92.64
3960;BME280;1994;48.640;8.894;2023-03-20T04:40:46;96403.47;;;8.65;92.60
3960;BME280;1994;48.640;8.894;2023-03-20T04:43:13;96408.66;;;8.65;92.25
3960;BME280;1994;48.640;8.894;2023-03-20T04:45:39;96408.09;;;8.63;92.31
3960;BME280;1994;48.640;8.894;2023-03-20T04:48:05;96406.22;;;8.52;92.96
3960;BME280;1994;48.640;8.894;2023-03-20T04:50:31;96408.34;;;8.55;93.01
3960;BME280;1994;48.640;8.894;2023-03-20T04:52:57;96402.34;;;8.61;92.86
3960;BME280;1994;48.640;8.894;2023-03-20T04:55:23;96405.66;;;8.50;93.59
3960;BME280;1994;48.640;8.894;2023-03-20T04:57:49;96412.22;;;8.46;93.52
3960;BME280;1994;48.640;8.894;2023-03-20T05:00:16;96415.88;;;8.56;93.05
3960;BME280;1994;48.640;8.894;2023-03-20T05:02:43;96410.38;;;8.53;93.70
3960;BME280;1994;48.640;8.894;2023-03-20T05:05:09;96416.69;;;8.57;93.82
3960;BME280;1994;48.640;8.894;2023-03-20T05:07:36;96421.00;;;8.63;93.75
3960;BME280;1994;48.640;8.894;2023-03-20T05:10:03;96421.00;;;8.63;93.85
3960;BME280;1994;48.640;8.894;2023-03-20T05:12:29;96424.75;;;8.67;93.82
3960;BME280;1994;48.640;8.894;2023-03-20T05:14:55;96430.19;;;8.77;93.37
3960;BME280;1994;48.640;8.894;2023-03-20T05:17:23;96437.94;;;8.77;93.48
3960;BME280;1994;48.640;8.894;2023-03-20T05:19:49;96434.06;;;8.68;93.93
3960;BME280;1994;48.640;8.894;2023-03-20T05:22:16;96430.06;;;8.72;94.13
3960;BME280;1994;48.640;8.894;2023-03-20T05:24:42;96427.31;;;8.67;94.25
3960;BME280;1994;48.640;8.894;2023-03-20T05:27:08;96431.31;;;8.63;94.50
3960;BME280;1994;48.640;8.894;2023-03-20T05:29:34;96425.72;;;8.66;94.08
3960;BME280;1994;48.640;8.894;2023-03-20T05:32:00;96428.44;;;8.71;94.06
3960;BME280;1994;48.640;8.894;2023-03-20T05:34:26;96424.88;;;8.72;94.15
3960;BME280;1994;48.640;8.894;2023-03-20T05:36:52;96421.56;;;8.65;94.68
3960;BME280;1994;48.640;8.894;2023-03-20T05:39:18;96426.47;;;8.73;93.90
3960;BME280;1994;48.640;8.894;2023-03-20T05:41:44;96428.03;;;8.74;93.92
3960;BME280;1994;48.640;8.894;2023-03-20T05:44:10;96430.69;;;8.67;94.36
3960;BME280;1994;48.640;8.894;2023-03-20T05:46:35;96434.50;;;8.83;94.18
3960;BME280;1994;48.640;8.894;2023-03-20T05:49:01;96428.75;;;8.81;93.84
3960;BME280;1994;48.640;8.894;2023-03-20T05:51:27;96440.25;;;8.85;93.84
3960;BME280;1994;48.640;8.894;2023-03-20T05:53:53;96448.19;;;8.83;94.01
3960;BME280;1994;48.640;8.894;2023-03-20T05:56:18;96451.78;;;8.82;94.63
3960;BME280;1994;48.640;8.894;2023-03-20T05:58:44;96440.66;;;8.82;94.55
3960;BME280;1994;48.640;8.894;2023-03-20T06:01:10;96454.53;;;8.87;94.46
3960;BME280;1994;48.640;8.894;2023-03-20T06:03:36;96454.16;;;8.84;94.67
3960;BME280;1994;48.640;8.894;2023-03-20T06:06:03;96460.03;;;8.73;95.52
3960;BME280;1994;48.640;8.894;2023-03-20T06:08:29;96455.59;;;8.80;95.53
3960;BME280;1994;48.640;8.894;2023-03-20T06:10:57;96464.34;;;8.97;94.91
3960;BME280;1994;48.640;8.894;2023-03-20T06:13:23;96459.75;;;8.81;95.71
3960;BME280;1994;48.640;8.894;2023-03-20T06:15:49;96458.88;;;8.87;95.29
3960;BME280;1994;48.640;8.894;2023-03-20T06:18:14;96464.34;;;8.97;94.84
3960;BME280;1994;48.640;8.894;2023-03-20T06:20:40;96456.38;;;8.98;94.79
3960;BME280;1994;48.640;8.894;2023-03-20T06:23:06;96467.53;;;8.99;95.33
3960;BME280;1994;48.640;8.894;2023-03-20T06:25:32;96468.09;;;9.01;94.96
3960;BME280;1994;48.640;8.894;2023-03-20T06:27:58;96462.22;;;9.12;94.49
3960;BME280;1994;48.640;8.894;2023-03-20T06:30:24;96462.38;;;8.99;94.63
3960;BME280;1994;48.640;8.894;2023-03-20T06:32:49;96460.84;;;9.09;94.81
3960;BME280;1994;48.640;8.894;2023-03-20T06:35:15;96458.63;;;9.13;94.53
3960;BME280;1994;48.640;8.894;2023-03-20T06:37:42;96454.16;;;9.20;94.06
3960;BME280;1994;48.640;8.894;2023-03-20T06:40:08;96458.69;;;9.24;94.35
3960;BME280;1994;48.640;8.894;2023-03-20T06:42:35;96457.13;;;9.23;94.10
3960;BME280;1994;48.640;8.894;2023-03-20T06:45:03;96458.91;;;9.23;93.76
3960;BME280;1994;48.640;8.894;2023-03-20T06:47:31;96462.63;;;9.27;93.93
3960;BME280;1994;48.640;8.894;2023-03-20T06:49:59;96467.50;;;9.35;93.30
3960;BME280;1994;48.640;8.894;2023-03-20T06:52:25;96460.06;;;9.27;93.46
3960;BME280;1994;48.640;8.894;2023-03-20T06:54:51;96460.53;;;9.17;93.97
3960;BME280;1994;48.640;8.894;2023-03-20T06:57:17;96460.34;;;9.19;94.10
3960;BME280;1994;48.640;8.894;2023-03-20T06:59:43;96463.34;;;9.34;94.07
3960;BME280;1994;48.640;8.894;2023-03-20T07:02:10;96471.66;;;9.36;93.45
3960;BME280;1994;48.640;8.894;2023-03-20T07:04:36;96469.44;;;9.57;92.47
3960;BME280;1994;48.640;8.894;2023-03-20T07:07:02;96477.06;;;9.64;91.58
3960;BME280;1994;48.640;8.894;2023-03-20T07:09:27;96476.94;;;9.77;91.77
3960;BME280;1994;48.640;8.894;2023-03-20T07:11:53;96491.44;;;9.78;90.68
3960;BME280;1994;48.640;8.894;2023-03-20T07:14:19;96487.28;;;9.77;90.31
3960;BME280;1994;48.640;8.894;2023-03-20T07:16:45;96492.41;;;9.95;89.88
3960;BME280;1994;48.640;8.894;2023-03-20T07:19:11;96499.53;;;9.99;89.32
3960;BME280;1994;48.640;8.894;2023-03-20T07:21:38;96505.78;;;9.92;90.07
3960;BME280;1994;48.640;8.894;2023-03-20T07:24:04;96506.97;;;9.78;90.36
3960;BME280;1994;48.640;8.894;2023-03-20T07:26:31;96504.63;;;9.88;90.26
3960;BME280;1994;48.640;8.894;2023-03-20T07:28:57;96501.56;;;9.79;89.88
3960;BME280;1994;48.640;8.894;2023-03-20T07:31:26;96506.69;;;9.68;90.21
3960;BME280;1994;48.640;8.894;2023-03-20T07:33:54;96499.13;;;9.84;89.98
3960;BME280;1994;48.640;8.894;2023-03-20T07:36:20;96495.94;;;9.82;88.30
3960;BME280;1994;48.640;8.894;2023-03-20T07:38:46;96490.34;;;9.85;88.38
3960;BME280;1994;48.640;8.894;2023-03-20T07:41:12;96497.50;;;10.01;87.16
3960;BME280;1994;48.640;8.894;2023-03-20T07:43:38;96502.31;;;9.98;87.14
3960;BME280;1994;48.640;8.894;2023-03-20T07:46:06;96495.06;;;10.18;86.44
3960;BME280;1994;48.640;8.894;2023-03-20T07:48:33;96497.44;;;9.90;86.34
3960;BME280;1994;48.640;8.894;2023-03-20T07:50:59;96506.22;;;9.89;86.22
3960;BME280;1994;48.640;8.894;2023-03-20T07:53:25;96505.00;;;9.91;85.93
3960;BME280;1994;48.640;8.894;2023-03-20T07:55:51;96508.59;;;9.90;86.22
3960;BME280;1994;48.640;8.894;2023-03-20T07:58:16;96508.66;;;9.84;86.90
3960;BME280;1994;48.640;8.894;2023-03-20T08:00:42;96513.56;;;10.03;86.47
3960;BME280;1994;48.640;8.894;2023-03-20T08:03:09;96511.06;;;10.15;86.03
3960;BME280;1994;48.640;8.894;2023-03-20T08:05:35;96515.66;;;10.13;85.59
3960;BME280;1994;48.640;8.894;2023-03-20T08:08:01;96510.50;;;9.95;85.53
3960;BME280;1994;48.640;8.894;2023-03-20T08:10:27;96503.34;;;9.97;84.98
3960;BME280;1994;48.640;8.894;2023-03-20T08:12:53;96506.91;;;9.96;85.34
3960;BME280;1994;48.640;8.894;2023-03-20T08:15:19;96499.88;;;10.03;84.67
3960;BME280;1994;48.640;8.894;2023-03-20T08:17:45;96499.06;;;10.02;84.35
3960;BME280;1994;48.640;8.894;2023-03-20T08:20:12;96495.59;;;10.38;83.64
3960;BME280;1994;48.640;8.894;2023-03-20T08:22:39;96506.63;;;10.45;83.19
3960;BME280;1994;48.640;8.894;2023-03-20T08:25:06;96517.75;;;10.34;84.28
3960;BME280;1994;48.640;8.894;2023-03-20T08:27:34;96513.59;;;10.33;83.42
3960;BME280;1994;48.640;8.894;2023-03-20T08:30:00;96513.78;;;10.20;83.49
3960;BME280;1994;48.640;8.894;2023-03-20T08:32:26;96509.97;;;10.34;83.54
3960;BME280;1994;48.640;8.894;2023-03-20T08:34:52;96506.41;;;10.35;82.80
3960;BME280;1994;48.640;8.894;2023-03-20T08:37:20;96514.03;;;10.30;83.54
3960;BME280;1994;48.640;8.894;2023-03-20T08:39:46;96514.16;;;10.35;82.27
3960;BME280;1994;48.640;8.894;2023-03-20T08:42:12;96506.75;;;10.50;82.72
3960;BME280;1994;48.640;8.894;2023-03-20T08:44:38;96502.38;;;10.73;82.15
3960;BME280;1994;48.640;8.894;2023-03-20T08:47:04;96494.94;;;11.00;80.20
3960;BME280;1994;48.640;8.894;2023-03-20T08:49:33;96494.72;;;11.13;80.11
3960;BME280;1994;48.640;8.894;2023-03-20T08:51:59;96515.47;;;10.90;79.42
3960;BME280;1994;48.640;8.894;2023-03-20T08:54:25;96510.50;;;10.77;80.02
3960;BME280;1994;48.640;8.894;2023-03-20T08:56:51;96497.53;;;10.88;80.09
3960;BME280;1994;48.640;8.894;2023-03-20T08:59:17;96506.88;;;11.24;77.46
3960;BME280;1994;48.640;8.894;2023-03-20T09:01:44;96503.84;;;11.15;77.50
3960;BME280;1994;48.640;8.894;2023-03-20T09:04:12;96507.53;;;11.31;76.39
3960;BME280;1994;48.640;8.894;2023-03-20T09:06:39;96505.53;;;11.33;76.69
3960;BME280;1994;48.640;8.894;2023-03-20T09:09:12;96507.91;;;11.74;75.65
3960;BME280;1994;48.640;8.894;2023-03-20T09:11:40;96517.94;;;11.82;74.60
3960;BME280;1994;48.640;8.894;2023-03-20T09:14:06;96514.03;;;11.68;74.11
3960;BME280;1994;48.640;8.894;2023-03-20T09:16:32;96514.75;;;11.29;75.67
3960;BME280;1994;48.640;8.894;2023-03-20T09:18:58;96514.97;;;11.16;76.63
3960;BME280;1994;48.640;8.894;2023-03-20T09:21:23;96519.13;;;11.63;75.85
3960;BME280;1994;48.640;8.894;2023-03-20T09:23:50;96524.81;;;11.88;74.14
3960;BME280;1994;48.640;8.894;2023-03-20T09:26:15;96521.59;;;11.69;74.54
3960;BME280;1994;48.640;8.894;2023-03-20T09:28:41;96520.91;;;11.62;74.50
3960;BME280;1994;48.640;8.894;2023-03-20T09:31:07;96520.13;;;11.62;74.82
3960;BME280;1994;48.640;8.894;2023-03-20T09:33:33;96518.69;;;11.94;73.36
3960;BME280;1994;48.640;8.894;2023-03-20T09:35:58;96527.75;;;11.80;72.41
3960;BME280;1994;48.640;8.894;2023-03-20T09:38:25;96518.53;;;12.00;72.95
3960;BME280;1994;48.640;8.894;2023-03-20T09:40:57;96522.38;;;11.98;72.01
3960;BME280;1994;48.640;8.894;2023-03-20T09:52:43;96512.50;;;13.65;66.43
3960;BME280;1994;48.640;8.894;2023-03-20T09:55:18;96522.69;;;14.41;63.80
3960;BME280;1994;48.640;8.894;2023-03-20T09:57:52;96529.47;;;14.42;62.15
3960;BME280;1994;48.640;8.894;2023-03-20T10:00:23;96515.69;;;13.72;65.16
3960;BME280;1994;48.640;8.894;2023-03-20T10:02:58;96524.06;;;14.48;63.55
3960;BME280;1994;48.640;8.894;2023-03-20T10:05:25;96524.44;;;14.09;61.69
3960;BME280;1994;48.640;8.894;2023-03-20T10:08:00;96516.84;;;13.38;64.32
3960;BME280;1994;48.640;8.894;2023-03-20T10:11:19;96517.78;;;13.32;65.07
3960;BME280;1994;48.640;8.894;2023-03-20T10:22:54;96519.97;;;13.83;60.90
3960;BME280;1994;48.640;8.894;2023-03-20T10:25:33;96524.34;;;13.56;62.44
3960;BME280;1994;48.640;8.894;2023-03-20T10:28:01;96525.16;;;12.69;64.25
3960;BME280;1994;48.640;8.894;2023-03-20T10:42:40;96522.41;;;12.59;67.14
3960;BME280;1994;48.640;8.894;2023-03-20T10:47:44;96510.03;;;13.15;65.13
3960;BME280;1994;48.640;8.894;2023-03-20T10:50:22;96515.63;;;13.24;64.39
3960;BME280;1994;48.640;8.894;2023-03-20T10:52:53;96504.31;;;12.97;65.57
3960;BME280;1994;48.640;8.894;2023-03-20T10:55:28;96502.41;;;13.09;65.04
3960;BME280;1994;48.640;8.894;2023-03-20T10:58:22;96497.78;;;13.32;64.39
3960;BME280;1994;48.640;8.894;2023-03-20T11:00:49;96499.06;;;13.99;61.59
3960;BME280;1994;48.640;8.894;2023-03-20T11:03:23;96507.56;;;14.38;60.08
3960;BME280;1994;48.640;8.894;2023-03-20T11:06:46;96501.19;;;14.87;58.44
3960;BME280;1994;48.640;8.894;2023-03-20T11:08:53;96497.84;;;16.14;54.41
3960;BME280;1994;48.640;8.894;2023-03-20T11:11:27;96500.81;;;16.53;52.40
3960;BME280;1994;48.640;8.894;2023-03-20T11:14:20;96509.03;;;15.95;53.05
3960;BME280;1994;48.640;8.894;2023-03-20T11:16:53;96501.84;;;15.14;55.77
3960;BME280;1994;48.640;8.894;2023-03-20T11:19:22;96503.72;;;15.65;55.50
3960;BME280;1994;48.640;8.894;2023-03-20T11:21:54;96504.81;;;15.79;54.55
3960;BME280;1994;48.640;8.894;2023-03-20T11:24:44;96501.88;;;15.65;55.02
3960;BME280;1994;48.640;8.894;2023-03-20T11:27:16;96501.47;;;15.93;54.92
3960;BME280;1994;48.640;8.894;2023-03-20T11:29:46;96497.66;;;16.81;51.16
3960;BME280;1994;48.640;8.894;2023-03-20T11:32:32;96497.44;;;17.81;49.99
3960;BME280;1994;48.640;8.894;2023-03-20T11:37:50;96505.75;;;19.37;46.19
3960;BME280;1994;48.640;8.894;2023-03-20T11:40:25;96502.94;;;19.99;44.53
3960;BME280;1994;48.640;8.894;2023-03-20T11:43:01;96512.78;;;18.07;46.88
3960;BME280;1994;48.640;8.894;2023-03-20T11:45:39;96501.25;;;17.35;48.17
3960;BME280;1994;48.640;8.894;2023-03-20T11:48:11;96503.88;;;16.15;50.19
3960;BME280;1994;48.640;8.894;2023-03-20T11:50:47;96503.50;;;15.81;53.38
3960;BME280;1994;48.640;8.894;2023-03-20T11:53:37;96497.81;;;15.94;52.17
3960;BME280;1994;48.640;8.894;2023-03-20T11:56:21;96497.63;;;15.44;54.75
3960;BME280;1994;48.640;8.894;2023-03-20T12:01:29;96502.66;;;15.61;53.03
3960;BME280;1994;48.640;8.894;2023-03-20T12:04:06;96500.81;;;16.73;51.05
3960;BME280;1994;48.640;8.894;2023-03-20T12:06:56;96495.53;;;17.13;49.49
3960;BME280;1994;48.640;8.894;2023-03-20T12:09:49;96497.16;;;16.84;50.05
3960;BME280;1994;48.640;8.894;2023-03-20T12:20:45;96494.47;;;17.14;46.98
3960;BME280;1994;48.640;8.894;2023-03-20T12:34:58;96478.03;;;15.42;52.25
3960;BME280;1994;48.640;8.894;2023-03-20T12:37:24;96474.97;;;15.60;51.00
3960;BME280;1994;48.640;8.894;2023-03-20T12:39:55;96473.25;;;15.29;53.16
3960;BME280;1994;48.640;8.894;2023-03-20T12:42:31;96477.38;;;15.25;53.42
3960;BME280;1994;48.640;8.894;2023-03-20T12:45:17;96479.16;;;14.73;54.25
3960;BME280;1994;48.640;8.894;2023-03-20T12:48:33;96471.44;;;14.51;54.37
3960;BME280;1994;48.640;8.894;2023-03-20T12:51:22;96475.22;;;15.07;53.51
3960;BME280;1994;48.640;8.894;2023-03-20T12:56:53;96464.34;;;15.86;50.34
3960;BME280;1994;48.640;8.894;2023-03-20T13:11:02;96467.13;;;14.67;51.87
3960;BME280;1994;48.640;8.894;2023-03-20T13:27:31;96438.16;;;15.61;48.98
3960;BME280;1994;48.640;8.894;2023-03-20T13:39:29;96436.38;;;15.82;50.03
3960;BME280;1994;48.640;8.894;2023-03-20T13:42:02;96427.44;;;15.01;52.00
3960;BME280;1994;48.640;8.894;2023-03-20T13:44:31;96424.94;;;14.75;53.19
3960;BME280;1994;48.640;8.894;2023-03-20T13:47:05;96427.81;;;15.30;51.56
3960;BME280;1994;48.640;8.894;2023-03-20T13:52:34;96429.53;;;15.61;48.37
3960;BME280;1994;48.640;8.894;2023-03-20T14:01:20;96425.44;;;15.95;47.76
3960;BME280;1994;48.640;8.894;2023-03-20T14:03:35;96415.50;;;15.87;46.79
3960;BME280;1994;48.640;8.894;2023-03-20T14:08:58;96415.00;;;14.67;50.68
3960;BME280;1994;48.640;8.894;2023-03-20T14:11:28;96415.19;;;15.02;50.14
3960;BME280;1994;48.640;8.894;2023-03-20T14:14:14;96421.47;;;15.06;50.16
3960;BME280;1994;48.640;8.894;2023-03-20T14:16:43;96409.31;;;15.31;50.13
3960;BME280;1994;48.640;8.894;2023-03-20T14:19:28;96405.88;;;15.21;50.27
3960;BME280;1994;48.640;8.894;2023-03-20T14:21:55;96406.69;;;14.75;52.41
3960;BME280;1994;48.640;8.894;2023-03-20T14:24:23;96415.81;;;14.36;52.43
3960;BME280;1994;48.640;8.894;2023-03-20T14:26:55;96414.56;;;14.12;54.03
3960;BME280;1994;48.640;8.894;2023-03-20T14:32:21;96411.72;;;14.86;52.10
3960;BME280;1994;48.640;8.894;2023-03-20T14:34:52;96413.63;;;15.01;51.16
3960;BME280;1994;48.640;8.894;2023-03-20T14:38:14;96411.00;;;15.01;51.29
3960;BME280;1994;48.640;8.894;2023-03-20T14:41:11;96421.97;;;15.08;51.11
3960;BME280;1994;48.640;8.894;2023-03-20T14:44:05;96399.81;;;15.10;50.83
3960;BME280;1994;48.640;8.894;2023-03-20T14:57:47;96413.22;;;14.77;52.13
3960;BME280;1994;48.640;8.894;2023-03-20T15:00:24;96407.00;;;14.83;52.39
3960;BME280;1994;48.640;8.894;2023-03-20T15:05:31;96411.16;;;14.79;52.45
3960;BME280;1994;48.640;8.894;2023-03-20T15:08:21;96414.00;;;14.78;52.43
3960;BME280;1994;48.640;8.894;2023-03-20T15:10:55;96409.22;;;14.65;52.02
3960;BME280;1994;48.640;8.894;2023-03-20T15:13:24;96410.22;;;14.59;51.45
3960;BME280;1994;48.640;8.894;2023-03-20T15:16:09;96413.88;;;14.58;51.63
3960;BME280;1994;48.640;8.894;2023-03-20T15:18:49;96412.94;;;14.37;53.05
3960;BME280;1994;48.640;8.894;2023-03-20T15:21:20;96414.88;;;14.52;52.34
3960;BME280;1994;48.640;8.894;2023-03-20T15:23:47;96407.06;;;14.52;52.90
3960;BME280;1994;48.640;8.894;2023-03-20T15:26:16;96401.34;;;14.55;53.07
3960;BME280;1994;48.640;8.894;2023-03-20T15:28:44;96395.81;;;14.46;52.93
3960;BME280;1994;48.640;8.894;2023-03-20T15:31:37;96410.09;;;14.39;52.27
3960;BME280;1994;48.640;8.894;2023-03-20T15:34:16;96412.66;;;14.34;51.52
3960;BME280;1994;48.640;8.894;2023-03-20T15:36:44;96412.66;;;14.34;51.60
3960;BME280;1994;48.640;8.894;2023-03-20T15:39:16;96420.00;;;14.42;52.41
3960;BME280;1994;48.640;8.894;2023-03-20T15:41:53;96411.72;;;13.87;53.36
3960;BME280;1994;48.640;8.894;2023-03-20T15:44:47;96417.09;;;14.07;53.35
3960;BME280;1994;48.640;8.894;2023-03-20T15:47:17;96412.38;;;14.04;53.97
3960;BME280;1994;48.640;8.894;2023-03-20T15:49:57;96412.19;;;14.10;54.19
3960;BME280;1994;48.640;8.894;2023-03-20T15:52:41;96414.03;;;14.15;54.35
3960;BME280;1994;48.640;8.894;2023-03-20T15:55:16;96424.09;;;14.28;55.14
3960;BME280;1994;48.640;8.894;2023-03-20T15:57:44;96425.09;;;14.27;55.10
3960;BME280;1994;48.640;8.894;2023-03-20T16:00:44;96416.22;;;14.23;55.31
3960;BME280;1994;48.640;8.894;2023-03-20T16:03:17;96421.94;;;14.20;54.76
3960;BME280;1994;48.640;8.894;2023-03-20T16:05:49;96408.75;;;14.05;55.09
3960;BME280;1994;48.640;8.894;2023-03-20T16:08:37;96399.81;;;13.96;55.94
3960;BME280;1994;48.640;8.894;2023-03-20T16:11:15;96399.03;;;13.95;55.36
3960;BME280;1994;48.640;8.894;2023-03-20T16:13:44;96397.16;;;13.91;55.86
3960;BME280;1994;48.640;8.894;2023-03-20T16:16:20;96406.22;;;13.83;56.96
3960;BME280;1994;48.640;8.894;2023-03-20T16:18:49;96396.09;;;13.87;55.43
3960;BME280;1994;48.640;8.894;2023-03-20T16:21:29;96393.72;;;13.85;55.27
3960;BME280;1994;48.640;8.894;2023-03-20T16:23:58;96390.88;;;13.87;55.11
3960;BME280;1994;48.640;8.894;2023-03-20T16:26:26;96387.44;;;13.81;55.08
3960;BME280;1994;48.640;8.894;2023-03-20T16:28:58;96389.09;;;13.66;55.75
3960;BME280;1994;48.640;8.894;2023-03-20T16:31:32;96388.06;;;13.62;56.04
3960;BME280;1994;48.640;8.894;2023-03-20T16:34:07;96385.00;;;13.70;55.08
3960;BME280;1994;48.640;8.894;2023-03-20T16:36:36;96380.78;;;13.64;55.34
3960;BME280;1994;48.640;8.894;2023-03-20T16:39:15;96389.81;;;13.56;55.48
3960;BME280;1994;48.640;8.894;2023-03-20T16:41:43;96395.19;;;13.50;56.03
3960;BME280;1994;48.640;8.894;2023-03-20T16:44:20;96391.66;;;13.61;55.74
3960;BME280;1994;48.640;8.894;2023-03-20T16:47:43;96393.63;;;13.49;56.79
3960;BME280;1994;48.640;8.894;2023-03-20T16:50:21;96396.06;;;13.34;57.48
3960;BME280;1994;48.640;8.894;2023-03-20T16:52:56;96392.31;;;13.25;57.81